sensor_id;sensor_type;location;lat;lon;timestamp;temperature;humidity
420;DHT22;42600;54.408;13.016;2023-01-29T00:01:45;2.60;92.70
420;DHT22;42600;54.408;13.016;2023-01-29T00:04:12;2.60;92.70
420;DHT22;42600;54.408;13.016;2023-01-29T00:06:38;2.60;92.70
420;DHT22;42600;54.408;13.016;2023-01-29T00:09:05;2.60;92.70
420;DHT22;42600;54.408;13.016;2023-01-29T00:11:32;2.60;92.70
420;DHT22;42600;54.408;13.016;2023-01-29T00:13:59;2.60;92.70
420;DHT22;42600;54.408;13.016;2023-01-29T00:16:26;2.60;92.70
420;DHT22;42600;54.408;13.016;2023-01-29T00:18:54;2.60;92.70
420;DHT22;42600;54.408;13.016;2023-01-29T00:21:21;2.70;92.70
420;DHT22;42600;54.408;13.016;2023-01-29T00:23:48;2.70;92.70
420;DHT22;42600;54.408;13.016;2023-01-29T00:26:15;2.70;92.70
420;DHT22;42600;54.408;13.016;2023-01-29T00:28:42;2.70;92.70
420;DHT22;42600;54.408;13.016;2023-01-29T00:31:12;2.70;92.70
420;DHT22;42600;54.408;13.016;2023-01-29T00:33:39;2.80;92.70
420;DHT22;42600;54.408;13.016;2023-01-29T00:36:10;2.80;92.70
420;DHT22;42600;54.408;13.016;2023-01-29T00:38:37;2.80;92.70
420;DHT22;42600;54.408;13.016;2023-01-29T00:41:06;2.80;92.70
420;DHT22;42600;54.408;13.016;2023-01-29T00:43:51;2.80;92.70
420;DHT22;42600;54.408;13.016;2023-01-29T00:46:35;2.80;92.70
420;DHT22;42600;54.408;13.016;2023-01-29T00:49:03;2.90;92.70
420;DHT22;42600;54.408;13.016;2023-01-29T00:51:31;2.90;92.70
420;DHT22;42600;54.408;13.016;2023-01-29T00:53:58;2.90;92.70
420;DHT22;42600;54.408;13.016;2023-01-29T00:56:25;2.90;92.70
420;DHT22;42600;54.408;13.016;2023-01-29T00:58:52;2.90;92.70
420;DHT22;42600;54.408;13.016;2023-01-29T01:01:19;3.00;92.70
420;DHT22;42600;54.408;13.016;2023-01-29T01:04:07;3.00;92.70
420;DHT22;42600;54.408;13.016;2023-01-29T01:06:35;3.00;92.70
420;DHT22;42600;54.408;13.016;2023-01-29T01:09:02;3.00;92.70
420;DHT22;42600;54.408;13.016;2023-01-29T01:11:47;3.00;92.70
420;DHT22;42600;54.408;13.016;2023-01-29T01:14:13;3.00;92.70
420;DHT22;42600;54.408;13.016;2023-01-29T01:16:40;3.00;92.70
420;DHT22;42600;54.408;13.016;2023-01-29T01:19:06;3.10;92.70
420;DHT22;42600;54.408;13.016;2023-01-29T01:21:34;3.10;92.70
420;DHT22;42600;54.408;13.016;2023-01-29T01:24:01;3.10;92.70
420;DHT22;42600;54.408;13.016;2023-01-29T01:26:30;3.10;92.70
420;DHT22;42600;54.408;13.016;2023-01-29T01:28:57;3.10;92.70
420;DHT22;42600;54.408;13.016;2023-01-29T01:31:23;3.10;92.70
420;DHT22;42600;54.408;13.016;2023-01-29T01:33:50;3.10;92.70
420;DHT22;42600;54.408;13.016;2023-01-29T01:36:18;3.20;92.70
420;DHT22;42600;54.408;13.016;2023-01-29T01:38:46;3.20;92.70
420;DHT22;42600;54.408;13.016;2023-01-29T01:41:17;3.20;92.70
420;DHT22;42600;54.408;13.016;2023-01-29T01:43:49;3.20;92.70
420;DHT22;42600;54.408;13.016;2023-01-29T01:46:16;3.20;92.70
420;DHT22;42600;54.408;13.016;2023-01-29T01:48:43;3.30;92.70
420;DHT22;42600;54.408;13.016;2023-01-29T01:51:12;3.30;92.70
420;DHT22;42600;54.408;13.016;2023-01-29T01:53:42;3.30;92.70
420;DHT22;42600;54.408;13.016;2023-01-29T01:56:14;3.30;92.70
420;DHT22;42600;54.408;13.016;2023-01-29T01:58:44;3.30;92.70
420;DHT22;42600;54.408;13.016;2023-01-29T02:01:12;3.40;92.70
420;DHT22;42600;54.408;13.016;2023-01-29T02:03:42;3.40;92.70
420;DHT22;42600;54.408;13.016;2023-01-29T02:06:27;3.40;92.70
420;DHT22;42600;54.408;13.016;2023-01-29T02:09:17;3.40;92.70
420;DHT22;42600;54.408;13.016;2023-01-29T02:12:00;3.40;92.70
420;DHT22;42600;54.408;13.016;2023-01-29T02:14:27;3.40;92.70
420;DHT22;42600;54.408;13.016;2023-01-29T02:16:55;3.40;92.70
420;DHT22;42600;54.408;13.016;2023-01-29T02:19:28;3.40;92.70
420;DHT22;42600;54.408;13.016;2023-01-29T02:22:39;3.50;92.70
420;DHT22;42600;54.408;13.016;2023-01-29T02:25:28;3.50;92.70
420;DHT22;42600;54.408;13.016;2023-01-29T02:28:24;3.50;92.70
420;DHT22;42600;54.408;13.016;2023-01-29T02:30:58;3.50;92.70
420;DHT22;42600;54.408;13.016;2023-01-29T02:33:34;3.50;92.70
420;DHT22;42600;54.408;13.016;2023-01-29T02:36:12;3.50;92.70
420;DHT22;42600;54.408;13.016;2023-01-29T02:38:46;3.50;92.70
420;DHT22;42600;54.408;13.016;2023-01-29T02:41:24;3.50;92.70
420;DHT22;42600;54.408;13.016;2023-01-29T02:43:57;3.50;92.70
420;DHT22;42600;54.408;13.016;2023-01-29T02:46:31;3.50;92.70
420;DHT22;42600;54.408;13.016;2023-01-29T02:49:05;3.50;92.70
420;DHT22;42600;54.408;13.016;2023-01-29T02:51:36;3.60;92.70
420;DHT22;42600;54.408;13.016;2023-01-29T02:54:07;3.60;92.70
420;DHT22;42600;54.408;13.016;2023-01-29T02:56:40;3.60;92.70
420;DHT22;42600;54.408;13.016;2023-01-29T02:59:14;3.60;92.70
420;DHT22;42600;54.408;13.016;2023-01-29T03:01:47;3.60;92.70
420;DHT22;42600;54.408;13.016;2023-01-29T03:04:18;3.60;92.70
420;DHT22;42600;54.408;13.016;2023-01-29T03:06:49;3.60;92.70
420;DHT22;42600;54.408;13.016;2023-01-29T03:09:21;3.60;92.70
420;DHT22;42600;54.408;13.016;2023-01-29T03:11:52;3.60;92.70
420;DHT22;42600;54.408;13.016;2023-01-29T03:14:23;3.60;92.70
420;DHT22;42600;54.408;13.016;2023-01-29T03:16:52;3.60;92.70
420;DHT22;42600;54.408;13.016;2023-01-29T03:19:22;3.60;92.70
420;DHT22;42600;54.408;13.016;2023-01-29T03:21:54;3.60;92.70
420;DHT22;42600;54.408;13.016;2023-01-29T03:24:31;3.60;92.70
420;DHT22;42600;54.408;13.016;2023-01-29T03:27:19;3.60;92.70
420;DHT22;42600;54.408;13.016;2023-01-29T03:30:09;3.60;92.70
420;DHT22;42600;54.408;13.016;2023-01-29T03:32:55;3.60;92.70
420;DHT22;42600;54.408;13.016;2023-01-29T03:35:25;3.60;92.70
420;DHT22;42600;54.408;13.016;2023-01-29T03:38:00;3.70;92.70
420;DHT22;42600;54.408;13.016;2023-01-29T03:40:28;3.60;92.70
420;DHT22;42600;54.408;13.016;2023-01-29T03:43:06;3.70;92.70
420;DHT22;42600;54.408;13.016;2023-01-29T03:45:41;3.70;92.70
420;DHT22;42600;54.408;13.016;2023-01-29T03:48:15;3.70;92.70
420;DHT22;42600;54.408;13.016;2023-01-29T03:50:48;3.70;92.70
420;DHT22;42600;54.408;13.016;2023-01-29T03:53:23;3.70;92.70
420;DHT22;42600;54.408;13.016;2023-01-29T03:55:56;3.70;92.70
420;DHT22;42600;54.408;13.016;2023-01-29T03:58:29;3.70;92.70
420;DHT22;42600;54.408;13.016;2023-01-29T04:01:00;3.70;92.70
420;DHT22;42600;54.408;13.016;2023-01-29T04:03:31;3.70;92.70
420;DHT22;42600;54.408;13.016;2023-01-29T04:06:03;3.70;92.70
420;DHT22;42600;54.408;13.016;2023-01-29T04:08:37;3.70;92.70
420;DHT22;42600;54.408;13.016;2023-01-29T04:11:10;3.70;92.70
420;DHT22;42600;54.408;13.016;2023-01-29T04:13:38;3.70;92.70
420;DHT22;42600;54.408;13.016;2023-01-29T04:16:11;3.70;92.70
420;DHT22;42600;54.408;13.016;2023-01-29T04:18:39;3.70;92.70
420;DHT22;42600;54.408;13.016;2023-01-29T04:21:05;3.70;92.70
420;DHT22;42600;54.408;13.016;2023-01-29T04:23:32;3.80;92.70
420;DHT22;42600;54.408;13.016;2023-01-29T04:26:12;3.80;92.70
420;DHT22;42600;54.408;13.016;2023-01-29T04:28:52;3.80;92.70
420;DHT22;42600;54.408;13.016;2023-01-29T04:31:22;3.80;92.70
420;DHT22;42600;54.408;13.016;2023-01-29T04:33:57;3.80;92.70
420;DHT22;42600;54.408;13.016;2023-01-29T04:36:32;3.80;92.70
420;DHT22;42600;54.408;13.016;2023-01-29T04:39:06;3.80;92.70
420;DHT22;42600;54.408;13.016;2023-01-29T04:41:41;3.80;92.70
420;DHT22;42600;54.408;13.016;2023-01-29T04:44:17;3.80;92.70
420;DHT22;42600;54.408;13.016;2023-01-29T04:46:51;3.80;92.70
420;DHT22;42600;54.408;13.016;2023-01-29T04:49:28;3.80;92.70
420;DHT22;42600;54.408;13.016;2023-01-29T04:52:06;3.80;92.70
420;DHT22;42600;54.408;13.016;2023-01-29T04:54:46;3.80;92.70
420;DHT22;42600;54.408;13.016;2023-01-29T04:57:19;3.80;92.70
420;DHT22;42600;54.408;13.016;2023-01-29T04:59:52;3.80;92.70
420;DHT22;42600;54.408;13.016;2023-01-29T05:02:23;3.80;92.70
420;DHT22;42600;54.408;13.016;2023-01-29T05:04:53;3.80;92.70
420;DHT22;42600;54.408;13.016;2023-01-29T05:07:20;3.80;92.70
420;DHT22;42600;54.408;13.016;2023-01-29T05:09:48;3.80;92.70
420;DHT22;42600;54.408;13.016;2023-01-29T05:12:16;3.80;92.70
420;DHT22;42600;54.408;13.016;2023-01-29T05:14:44;3.80;92.70
420;DHT22;42600;54.408;13.016;2023-01-29T05:17:14;3.80;92.70
420;DHT22;42600;54.408;13.016;2023-01-29T05:19:43;3.80;92.70
420;DHT22;42600;54.408;13.016;2023-01-29T05:22:11;3.80;92.70
420;DHT22;42600;54.408;13.016;2023-01-29T05:24:39;3.80;92.70
420;DHT22;42600;54.408;13.016;2023-01-29T05:27:05;3.80;92.70
420;DHT22;42600;54.408;13.016;2023-01-29T05:29:50;3.80;92.70
420;DHT22;42600;54.408;13.016;2023-01-29T05:32:17;3.80;92.70
420;DHT22;42600;54.408;13.016;2023-01-29T05:34:45;3.80;92.70
420;DHT22;42600;54.408;13.016;2023-01-29T05:37:11;3.80;92.70
420;DHT22;42600;54.408;13.016;2023-01-29T05:39:38;3.80;92.70
420;DHT22;42600;54.408;13.016;2023-01-29T05:42:04;3.80;92.70
420;DHT22;42600;54.408;13.016;2023-01-29T05:44:31;3.90;92.70
420;DHT22;42600;54.408;13.016;2023-01-29T05:46:58;3.90;92.70
420;DHT22;42600;54.408;13.016;2023-01-29T05:49:26;3.80;92.70
420;DHT22;42600;54.408;13.016;2023-01-29T05:51:54;3.90;92.70
420;DHT22;42600;54.408;13.016;2023-01-29T05:54:21;3.90;92.70
420;DHT22;42600;54.408;13.016;2023-01-29T05:56:47;3.90;92.70
420;DHT22;42600;54.408;13.016;2023-01-29T05:59:14;3.90;92.70
420;DHT22;42600;54.408;13.016;2023-01-29T06:01:41;3.90;92.70
420;DHT22;42600;54.408;13.016;2023-01-29T06:04:08;3.90;92.70
420;DHT22;42600;54.408;13.016;2023-01-29T06:06:34;3.90;92.70
420;DHT22;42600;54.408;13.016;2023-01-29T06:09:02;3.90;92.70
420;DHT22;42600;54.408;13.016;2023-01-29T06:11:29;3.90;92.70
420;DHT22;42600;54.408;13.016;2023-01-29T06:13:55;3.90;92.70
420;DHT22;42600;54.408;13.016;2023-01-29T06:16:22;3.90;92.70
420;DHT22;42600;54.408;13.016;2023-01-29T06:18:48;3.90;92.70
420;DHT22;42600;54.408;13.016;2023-01-29T06:21:15;3.90;92.70
420;DHT22;42600;54.408;13.016;2023-01-29T06:23:42;3.90;92.70
420;DHT22;42600;54.408;13.016;2023-01-29T06:26:12;3.90;92.70
420;DHT22;42600;54.408;13.016;2023-01-29T06:28:39;3.90;92.70
420;DHT22;42600;54.408;13.016;2023-01-29T06:31:06;3.90;92.70
420;DHT22;42600;54.408;13.016;2023-01-29T06:33:33;3.90;92.70
420;DHT22;42600;54.408;13.016;2023-01-29T06:36:02;4.00;92.70
420;DHT22;42600;54.408;13.016;2023-01-29T06:38:29;4.00;92.70
420;DHT22;42600;54.408;13.016;2023-01-29T06:40:56;4.00;92.70
420;DHT22;42600;54.408;13.016;2023-01-29T06:43:24;4.00;92.70
420;DHT22;42600;54.408;13.016;2023-01-29T06:45:52;4.00;92.70
420;DHT22;42600;54.408;13.016;2023-01-29T06:48:19;4.00;92.70
420;DHT22;42600;54.408;13.016;2023-01-29T06:50:46;4.00;92.70
420;DHT22;42600;54.408;13.016;2023-01-29T06:53:14;4.00;92.70
420;DHT22;42600;54.408;13.016;2023-01-29T06:55:40;4.00;92.70
420;DHT22;42600;54.408;13.016;2023-01-29T06:58:08;4.00;92.70
420;DHT22;42600;54.408;13.016;2023-01-29T07:00:37;4.00;92.70
420;DHT22;42600;54.408;13.016;2023-01-29T07:03:04;4.00;92.70
420;DHT22;42600;54.408;13.016;2023-01-29T07:05:31;4.00;92.70
420;DHT22;42600;54.408;13.016;2023-01-29T07:07:57;4.00;92.70
420;DHT22;42600;54.408;13.016;2023-01-29T07:10:24;4.00;92.70
420;DHT22;42600;54.408;13.016;2023-01-29T07:12:51;4.00;92.70
420;DHT22;42600;54.408;13.016;2023-01-29T07:15:17;4.00;92.70
420;DHT22;42600;54.408;13.016;2023-01-29T07:17:56;4.10;92.70
420;DHT22;42600;54.408;13.016;2023-01-29T07:20:23;4.10;92.70
420;DHT22;42600;54.408;13.016;2023-01-29T07:22:50;4.10;92.70
420;DHT22;42600;54.408;13.016;2023-01-29T07:25:17;4.10;92.70
420;DHT22;42600;54.408;13.016;2023-01-29T07:27:43;4.10;92.70
420;DHT22;42600;54.408;13.016;2023-01-29T07:30:11;4.10;92.70
420;DHT22;42600;54.408;13.016;2023-01-29T07:32:37;4.10;92.70
420;DHT22;42600;54.408;13.016;2023-01-29T07:35:06;4.10;92.70
420;DHT22;42600;54.408;13.016;2023-01-29T07:37:32;4.10;92.70
420;DHT22;42600;54.408;13.016;2023-01-29T07:39:59;4.10;92.70
420;DHT22;42600;54.408;13.016;2023-01-29T07:42:26;4.10;92.70
420;DHT22;42600;54.408;13.016;2023-01-29T07:44:52;4.10;92.70
420;DHT22;42600;54.408;13.016;2023-01-29T07:47:19;4.10;92.70
420;DHT22;42600;54.408;13.016;2023-01-29T07:49:45;4.10;92.70
420;DHT22;42600;54.408;13.016;2023-01-29T07:52:13;4.10;92.70
420;DHT22;42600;54.408;13.016;2023-01-29T07:54:40;4.20;92.70
420;DHT22;42600;54.408;13.016;2023-01-29T07:57:06;4.10;92.70
420;DHT22;42600;54.408;13.016;2023-01-29T07:59:33;4.20;92.70
420;DHT22;42600;54.408;13.016;2023-01-29T08:01:59;4.20;92.70
420;DHT22;42600;54.408;13.016;2023-01-29T08:04:26;4.20;92.70
420;DHT22;42600;54.408;13.016;2023-01-29T08:06:52;4.20;92.70
420;DHT22;42600;54.408;13.016;2023-01-29T08:09:20;4.20;92.70
420;DHT22;42600;54.408;13.016;2023-01-29T08:11:47;4.20;92.70
420;DHT22;42600;54.408;13.016;2023-01-29T08:14:13;4.20;92.70
420;DHT22;42600;54.408;13.016;2023-01-29T08:16:40;4.30;92.70
420;DHT22;42600;54.408;13.016;2023-01-29T08:19:06;4.30;92.70
420;DHT22;42600;54.408;13.016;2023-01-29T08:21:33;4.30;92.70
420;DHT22;42600;54.408;13.016;2023-01-29T08:24:00;4.30;92.70
420;DHT22;42600;54.408;13.016;2023-01-29T08:26:27;4.30;92.70
420;DHT22;42600;54.408;13.016;2023-01-29T08:28:54;4.30;92.70
420;DHT22;42600;54.408;13.016;2023-01-29T08:31:20;4.30;92.70
420;DHT22;42600;54.408;13.016;2023-01-29T08:33:47;4.30;92.70
420;DHT22;42600;54.408;13.016;2023-01-29T08:36:14;4.30;92.70
420;DHT22;42600;54.408;13.016;2023-01-29T08:38:40;4.40;92.70
420;DHT22;42600;54.408;13.016;2023-01-29T08:41:07;4.40;92.70
420;DHT22;42600;54.408;13.016;2023-01-29T08:43:35;4.40;92.70
420;DHT22;42600;54.408;13.016;2023-01-29T08:46:03;4.40;92.70
420;DHT22;42600;54.408;13.016;2023-01-29T08:48:30;4.40;92.70
420;DHT22;42600;54.408;13.016;2023-01-29T08:50:58;4.40;92.70
420;DHT22;42600;54.408;13.016;2023-01-29T08:53:24;4.40;92.70
420;DHT22;42600;54.408;13.016;2023-01-29T08:55:52;4.50;92.70
420;DHT22;42600;54.408;13.016;2023-01-29T08:58:18;4.50;92.70
420;DHT22;42600;54.408;13.016;2023-01-29T09:00:46;4.50;92.70
420;DHT22;42600;54.408;13.016;2023-01-29T09:03:13;4.50;92.70
420;DHT22;42600;54.408;13.016;2023-01-29T09:05:40;4.50;92.70
420;DHT22;42600;54.408;13.016;2023-01-29T09:08:08;4.50;92.70
420;DHT22;42600;54.408;13.016;2023-01-29T09:10:35;4.50;92.70
420;DHT22;42600;54.408;13.016;2023-01-29T09:13:02;4.50;92.70
420;DHT22;42600;54.408;13.016;2023-01-29T09:15:28;4.50;92.70
420;DHT22;42600;54.408;13.016;2023-01-29T09:17:56;4.50;92.70
420;DHT22;42600;54.408;13.016;2023-01-29T09:20:23;4.50;92.70
420;DHT22;42600;54.408;13.016;2023-01-29T09:22:49;4.50;92.70
420;DHT22;42600;54.408;13.016;2023-01-29T09:25:17;4.50;92.70
420;DHT22;42600;54.408;13.016;2023-01-29T09:27:44;4.50;92.70
420;DHT22;42600;54.408;13.016;2023-01-29T09:30:11;4.60;92.70
420;DHT22;42600;54.408;13.016;2023-01-29T09:32:38;4.60;92.70
420;DHT22;42600;54.408;13.016;2023-01-29T09:35:06;4.70;92.70
420;DHT22;42600;54.408;13.016;2023-01-29T09:37:33;4.70;92.70
420;DHT22;42600;54.408;13.016;2023-01-29T09:40:00;4.70;92.70
420;DHT22;42600;54.408;13.016;2023-01-29T09:42:28;4.80;92.70
420;DHT22;42600;54.408;13.016;2023-01-29T09:45:05;4.80;92.70
420;DHT22;42600;54.408;13.016;2023-01-29T09:47:34;4.80;92.70
420;DHT22;42600;54.408;13.016;2023-01-29T09:50:03;4.80;92.70
420;DHT22;42600;54.408;13.016;2023-01-29T09:52:34;4.80;92.70
420;DHT22;42600;54.408;13.016;2023-01-29T09:55:04;4.90;92.70
420;DHT22;42600;54.408;13.016;2023-01-29T09:57:37;4.90;92.70
420;DHT22;42600;54.408;13.016;2023-01-29T10:00:13;4.90;92.70
420;DHT22;42600;54.408;13.016;2023-01-29T10:02:55;4.80;92.70
420;DHT22;42600;54.408;13.016;2023-01-29T10:05:36;4.80;92.70
420;DHT22;42600;54.408;13.016;2023-01-29T10:08:28;4.80;92.70
420;DHT22;42600;54.408;13.016;2023-01-29T10:11:01;4.80;92.70
420;DHT22;42600;54.408;13.016;2023-01-29T10:13:39;4.80;92.70
420;DHT22;42600;54.408;13.016;2023-01-29T10:16:20;4.80;92.70
420;DHT22;42600;54.408;13.016;2023-01-29T10:19:01;4.80;92.70
420;DHT22;42600;54.408;13.016;2023-01-29T10:21:43;4.80;92.70
420;DHT22;42600;54.408;13.016;2023-01-29T10:24:23;4.80;92.70
420;DHT22;42600;54.408;13.016;2023-01-29T10:26:51;4.80;92.70
420;DHT22;42600;54.408;13.016;2023-01-29T10:29:19;4.80;92.70
420;DHT22;42600;54.408;13.016;2023-01-29T10:31:49;4.80;92.70
420;DHT22;42600;54.408;13.016;2023-01-29T10:34:22;4.80;92.70
420;DHT22;42600;54.408;13.016;2023-01-29T10:36:50;4.80;92.70
420;DHT22;42600;54.408;13.016;2023-01-29T10:39:19;4.80;92.70
420;DHT22;42600;54.408;13.016;2023-01-29T10:42:04;4.90;92.70
420;DHT22;42600;54.408;13.016;2023-01-29T10:44:45;4.90;92.70
420;DHT22;42600;54.408;13.016;2023-01-29T10:50:19;4.90;92.70
420;DHT22;42600;54.408;13.016;2023-01-29T10:53:05;4.90;92.70
420;DHT22;42600;54.408;13.016;2023-01-29T10:55:49;4.90;92.70
420;DHT22;42600;54.408;13.016;2023-01-29T10:58:25;4.90;92.70
420;DHT22;42600;54.408;13.016;2023-01-29T11:00:55;4.90;92.70
420;DHT22;42600;54.408;13.016;2023-01-29T11:03:23;4.90;92.70
420;DHT22;42600;54.408;13.016;2023-01-29T11:05:55;4.90;92.70
420;DHT22;42600;54.408;13.016;2023-01-29T11:08:27;4.90;92.70
420;DHT22;42600;54.408;13.016;2023-01-29T11:11:02;4.90;92.70
420;DHT22;42600;54.408;13.016;2023-01-29T11:13:34;4.90;92.70
420;DHT22;42600;54.408;13.016;2023-01-29T11:16:04;4.80;92.70
420;DHT22;42600;54.408;13.016;2023-01-29T11:18:51;4.80;92.70
420;DHT22;42600;54.408;13.016;2023-01-29T11:21:18;4.80;92.70
420;DHT22;42600;54.408;13.016;2023-01-29T11:23:45;4.80;92.70
420;DHT22;42600;54.408;13.016;2023-01-29T11:26:17;4.90;92.70
420;DHT22;42600;54.408;13.016;2023-01-29T11:28:46;4.80;92.70
420;DHT22;42600;54.408;13.016;2023-01-29T11:31:24;4.80;92.70
420;DHT22;42600;54.408;13.016;2023-01-29T11:33:53;4.80;92.70
420;DHT22;42600;54.408;13.016;2023-01-29T11:36:31;4.80;92.70
420;DHT22;42600;54.408;13.016;2023-01-29T11:39:14;4.80;92.70
420;DHT22;42600;54.408;13.016;2023-01-29T11:41:47;4.80;92.70
420;DHT22;42600;54.408;13.016;2023-01-29T11:44:17;4.70;92.70
420;DHT22;42600;54.408;13.016;2023-01-29T11:46:44;4.70;92.70
420;DHT22;42600;54.408;13.016;2023-01-29T11:49:21;4.70;92.70
420;DHT22;42600;54.408;13.016;2023-01-29T11:51:51;4.70;92.70
420;DHT22;42600;54.408;13.016;2023-01-29T11:54:21;4.70;92.70
420;DHT22;42600;54.408;13.016;2023-01-29T11:56:50;4.80;92.70
420;DHT22;42600;54.408;13.016;2023-01-29T11:59:28;4.80;92.70
420;DHT22;42600;54.408;13.016;2023-01-29T12:01:55;4.80;92.70
420;DHT22;42600;54.408;13.016;2023-01-29T12:04:30;4.80;92.70
420;DHT22;42600;54.408;13.016;2023-01-29T12:06:57;4.80;92.70
420;DHT22;42600;54.408;13.016;2023-01-29T12:09:25;4.80;92.70
420;DHT22;42600;54.408;13.016;2023-01-29T12:11:54;4.80;92.70
420;DHT22;42600;54.408;13.016;2023-01-29T12:14:27;4.90;92.70
420;DHT22;42600;54.408;13.016;2023-01-29T12:16:57;4.90;92.70
420;DHT22;42600;54.408;13.016;2023-01-29T12:19:27;4.90;92.70
420;DHT22;42600;54.408;13.016;2023-01-29T12:21:58;4.90;92.70
420;DHT22;42600;54.408;13.016;2023-01-29T12:24:30;5.00;92.70
420;DHT22;42600;54.408;13.016;2023-01-29T12:27:04;5.00;92.70
420;DHT22;42600;54.408;13.016;2023-01-29T12:29:36;5.00;92.70
420;DHT22;42600;54.408;13.016;2023-01-29T12:32:11;5.00;92.70
420;DHT22;42600;54.408;13.016;2023-01-29T12:34:44;5.00;92.70
420;DHT22;42600;54.408;13.016;2023-01-29T12:37:18;5.00;92.70
420;DHT22;42600;54.408;13.016;2023-01-29T12:39:47;5.10;92.70
420;DHT22;42600;54.408;13.016;2023-01-29T12:42:17;5.10;92.70
420;DHT22;42600;54.408;13.016;2023-01-29T12:44:46;5.10;92.70
420;DHT22;42600;54.408;13.016;2023-01-29T12:47:19;5.10;92.70
420;DHT22;42600;54.408;13.016;2023-01-29T12:49:51;5.10;92.70
420;DHT22;42600;54.408;13.016;2023-01-29T12:52:25;5.10;92.70
420;DHT22;42600;54.408;13.016;2023-01-29T12:54:58;5.10;92.70
420;DHT22;42600;54.408;13.016;2023-01-29T12:57:33;5.10;92.70
420;DHT22;42600;54.408;13.016;2023-01-29T13:00:04;5.10;92.70
420;DHT22;42600;54.408;13.016;2023-01-29T13:02:38;5.10;92.70
420;DHT22;42600;54.408;13.016;2023-01-29T13:05:16;5.10;92.70
420;DHT22;42600;54.408;13.016;2023-01-29T13:07:46;5.10;92.70
420;DHT22;42600;54.408;13.016;2023-01-29T13:10:17;5.10;92.70
420;DHT22;42600;54.408;13.016;2023-01-29T13:12:53;5.10;92.70
420;DHT22;42600;54.408;13.016;2023-01-29T13:15:25;5.10;92.70
420;DHT22;42600;54.408;13.016;2023-01-29T13:17:57;5.10;92.70
420;DHT22;42600;54.408;13.016;2023-01-29T13:20:28;5.10;92.70
420;DHT22;42600;54.408;13.016;2023-01-29T13:23:05;5.10;92.70
420;DHT22;42600;54.408;13.016;2023-01-29T13:25:38;5.10;92.70
420;DHT22;42600;54.408;13.016;2023-01-29T13:28:15;5.10;92.70
420;DHT22;42600;54.408;13.016;2023-01-29T13:30:42;5.10;92.70
420;DHT22;42600;54.408;13.016;2023-01-29T13:33:21;5.10;92.70
420;DHT22;42600;54.408;13.016;2023-01-29T13:35:57;5.10;92.70
420;DHT22;42600;54.408;13.016;2023-01-29T13:38:27;5.10;92.70
420;DHT22;42600;54.408;13.016;2023-01-29T13:40:57;5.10;92.70
420;DHT22;42600;54.408;13.016;2023-01-29T13:43:31;5.00;92.70
420;DHT22;42600;54.408;13.016;2023-01-29T13:46:06;5.10;92.70
420;DHT22;42600;54.408;13.016;2023-01-29T13:48:40;5.10;92.70
420;DHT22;42600;54.408;13.016;2023-01-29T13:51:10;5.10;92.70
420;DHT22;42600;54.408;13.016;2023-01-29T13:53:42;5.10;92.70
420;DHT22;42600;54.408;13.016;2023-01-29T13:56:27;5.10;92.70
420;DHT22;42600;54.408;13.016;2023-01-29T13:58:56;5.10;92.70
420;DHT22;42600;54.408;13.016;2023-01-29T14:01:59;5.10;92.70
420;DHT22;42600;54.408;13.016;2023-01-29T14:04:29;5.10;92.70
420;DHT22;42600;54.408;13.016;2023-01-29T14:06:56;5.00;92.70
420;DHT22;42600;54.408;13.016;2023-01-29T14:12:47;5.00;92.70
420;DHT22;42600;54.408;13.016;2023-01-29T14:15:22;5.00;92.70
420;DHT22;42600;54.408;13.016;2023-01-29T14:18:05;5.00;92.70
420;DHT22;42600;54.408;13.016;2023-01-29T14:20:40;5.00;92.70
420;DHT22;42600;54.408;13.016;2023-01-29T14:26:18;4.90;92.70
420;DHT22;42600;54.408;13.016;2023-01-29T14:28:55;4.90;92.70
420;DHT22;42600;54.408;13.016;2023-01-29T14:31:31;4.90;92.70
420;DHT22;42600;54.408;13.016;2023-01-29T14:34:03;4.90;92.70
420;DHT22;42600;54.408;13.016;2023-01-29T14:36:38;4.90;92.70
420;DHT22;42600;54.408;13.016;2023-01-29T14:39:05;4.90;92.70
420;DHT22;42600;54.408;13.016;2023-01-29T14:41:33;4.80;92.70
420;DHT22;42600;54.408;13.016;2023-01-29T14:47:17;4.80;92.70
420;DHT22;42600;54.408;13.016;2023-01-29T14:49:48;4.80;92.70
420;DHT22;42600;54.408;13.016;2023-01-29T14:52:16;4.80;92.70
420;DHT22;42600;54.408;13.016;2023-01-29T14:54:45;4.80;92.70
420;DHT22;42600;54.408;13.016;2023-01-29T14:57:14;4.80;92.70
420;DHT22;42600;54.408;13.016;2023-01-29T14:59:47;4.70;92.70
420;DHT22;42600;54.408;13.016;2023-01-29T15:02:20;4.70;92.70
420;DHT22;42600;54.408;13.016;2023-01-29T15:04:51;4.70;92.70
420;DHT22;42600;54.408;13.016;2023-01-29T15:07:26;4.70;92.70
420;DHT22;42600;54.408;13.016;2023-01-29T15:09:57;4.70;92.70
420;DHT22;42600;54.408;13.016;2023-01-29T15:12:28;4.70;92.70
420;DHT22;42600;54.408;13.016;2023-01-29T15:15:02;4.70;92.70
420;DHT22;42600;54.408;13.016;2023-01-29T15:17:33;4.70;92.70
420;DHT22;42600;54.408;13.016;2023-01-29T15:20:29;4.70;92.70
420;DHT22;42600;54.408;13.016;2023-01-29T15:22:57;4.70;92.70
420;DHT22;42600;54.408;13.016;2023-01-29T15:25:23;4.70;92.70
420;DHT22;42600;54.408;13.016;2023-01-29T15:27:50;4.70;92.70
420;DHT22;42600;54.408;13.016;2023-01-29T15:30:21;4.60;92.70
420;DHT22;42600;54.408;13.016;2023-01-29T15:32:50;4.60;92.70
420;DHT22;42600;54.408;13.016;2023-01-29T15:35:25;4.60;92.70
420;DHT22;42600;54.408;13.016;2023-01-29T15:38:01;4.60;92.70
420;DHT22;42600;54.408;13.016;2023-01-29T15:40:28;4.60;92.70
420;DHT22;42600;54.408;13.016;2023-01-29T15:42:54;4.60;92.70
420;DHT22;42600;54.408;13.016;2023-01-29T15:45:27;4.60;92.70
420;DHT22;42600;54.408;13.016;2023-01-29T15:48:00;4.60;92.70
420;DHT22;42600;54.408;13.016;2023-01-29T15:50:30;4.60;92.70
420;DHT22;42600;54.408;13.016;2023-01-29T15:53:01;4.60;92.70
420;DHT22;42600;54.408;13.016;2023-01-29T15:55:29;4.50;92.70
420;DHT22;42600;54.408;13.016;2023-01-29T15:57:57;4.50;92.70
420;DHT22;42600;54.408;13.016;2023-01-29T16:00:26;4.50;92.70
420;DHT22;42600;54.408;13.016;2023-01-29T16:02:54;4.50;92.70
420;DHT22;42600;54.408;13.016;2023-01-29T16:05:24;4.50;92.70
420;DHT22;42600;54.408;13.016;2023-01-29T16:07:53;4.50;92.70
420;DHT22;42600;54.408;13.016;2023-01-29T16:10:21;4.50;92.70
420;DHT22;42600;54.408;13.016;2023-01-29T16:12:49;4.50;92.70
420;DHT22;42600;54.408;13.016;2023-01-29T16:15:22;4.50;92.70
420;DHT22;42600;54.408;13.016;2023-01-29T16:17:50;4.50;92.70
420;DHT22;42600;54.408;13.016;2023-01-29T16:20:31;4.50;92.70
420;DHT22;42600;54.408;13.016;2023-01-29T16:22:59;4.50;92.70
420;DHT22;42600;54.408;13.016;2023-01-29T16:25:28;4.50;92.70
420;DHT22;42600;54.408;13.016;2023-01-29T16:27:55;4.40;92.70
420;DHT22;42600;54.408;13.016;2023-01-29T16:30:24;4.50;92.70
420;DHT22;42600;54.408;13.016;2023-01-29T16:32:52;4.40;92.70
420;DHT22;42600;54.408;13.016;2023-01-29T16:35:18;4.40;92.70
420;DHT22;42600;54.408;13.016;2023-01-29T16:37:47;4.40;92.70
420;DHT22;42600;54.408;13.016;2023-01-29T16:40:25;4.40;92.70